sensor_id;sensor_type;location;lat;lon;timestamp;P1;durP1;ratioP1;P2;durP2;ratioP2
70635;SDS011;58206;47.310;19.502;2022-09-13T00:01:19;7.45;;;4.20;;
70635;SDS011;58206;47.310;19.502;2022-09-13T00:04:04;7.43;;;4.00;;
70635;SDS011;58206;47.310;19.502;2022-09-13T00:06:48;7.32;;;3.95;;
70635;SDS011;58206;47.310;19.502;2022-09-13T00:09:33;8.45;;;3.83;;
70635;SDS011;58206;47.310;19.502;2022-09-13T00:12:17;7.15;;;4.10;;
70635;SDS011;58206;47.310;19.502;2022-09-13T00:15:02;7.90;;;4.10;;
70635;SDS011;58206;47.310;19.502;2022-09-13T00:17:46;11.10;;;4.80;;
70635;SDS011;58206;47.310;19.502;2022-09-13T00:20:31;8.00;;;3.90;;
70635;SDS011;58206;47.310;19.502;2022-09-13T00:23:15;8.32;;;3.90;;
70635;SDS011;58206;47.310;19.502;2022-09-13T00:26:03;7.53;;;4.18;;
70635;SDS011;58206;47.310;19.502;2022-09-13T00:28:49;8.20;;;4.32;;
70635;SDS011;58206;47.310;19.502;2022-09-13T00:31:34;7.50;;;4.20;;
70635;SDS011;58206;47.310;19.502;2022-09-13T00:34:19;8.32;;;4.55;;
70635;SDS011;58206;47.310;19.502;2022-09-13T00:37:03;7.97;;;4.13;;
70635;SDS011;58206;47.310;19.502;2022-09-13T00:39:48;8.02;;;4.43;;
70635;SDS011;58206;47.310;19.502;2022-09-13T00:42:32;9.02;;;4.40;;
70635;SDS011;58206;47.310;19.502;2022-09-13T00:45:17;9.23;;;4.00;;
70635;SDS011;58206;47.310;19.502;2022-09-13T00:48:03;8.38;;;3.95;;
70635;SDS011;58206;47.310;19.502;2022-09-13T00:50:50;9.38;;;4.03;;
70635;SDS011;58206;47.310;19.502;2022-09-13T00:53:38;8.80;;;3.67;;
70635;SDS011;58206;47.310;19.502;2022-09-13T00:56:27;7.20;;;4.15;;
70635;SDS011;58206;47.310;19.502;2022-09-13T00:59:12;9.93;;;4.37;;
70635;SDS011;58206;47.310;19.502;2022-09-13T01:01:58;8.82;;;4.20;;
70635;SDS011;58206;47.310;19.502;2022-09-13T01:04:44;7.43;;;4.15;;
70635;SDS011;58206;47.310;19.502;2022-09-13T01:07:29;7.65;;;4.15;;
70635;SDS011;58206;47.310;19.502;2022-09-13T01:10:13;7.72;;;4.13;;
70635;SDS011;58206;47.310;19.502;2022-09-13T01:13:00;7.57;;;3.83;;
70635;SDS011;58206;47.310;19.502;2022-09-13T01:15:47;8.50;;;4.10;;
70635;SDS011;58206;47.310;19.502;2022-09-13T01:18:32;7.13;;;4.15;;
70635;SDS011;58206;47.310;19.502;2022-09-13T01:21:28;7.35;;;4.03;;
70635;SDS011;58206;47.310;19.502;2022-09-13T01:30:23;9.02;;;4.55;;
70635;SDS011;58206;47.310;19.502;2022-09-13T01:33:19;7.75;;;4.22;;
70635;SDS011;58206;47.310;19.502;2022-09-13T01:39:07;8.57;;;4.60;;
70635;SDS011;58206;47.310;19.502;2022-09-13T02:02:07;8.57;;;4.45;;
70635;SDS011;58206;47.310;19.502;2022-09-13T02:04:54;9.90;;;4.30;;
70635;SDS011;58206;47.310;19.502;2022-09-13T02:07:42;7.40;;;4.25;;
70635;SDS011;58206;47.310;19.502;2022-09-13T02:10:31;8.17;;;4.30;;
70635;SDS011;58206;47.310;19.502;2022-09-13T02:13:18;7.68;;;4.10;;
70635;SDS011;58206;47.310;19.502;2022-09-13T02:16:37;10.15;;;4.55;;
70635;SDS011;58206;47.310;19.502;2022-09-13T02:19:15;8.30;;;4.20;;
70635;SDS011;58206;47.310;19.502;2022-09-13T02:22:02;8.55;;;4.63;;
70635;SDS011;58206;47.310;19.502;2022-09-13T02:24:49;8.83;;;4.23;;
70635;SDS011;58206;47.310;19.502;2022-09-13T02:27:35;8.48;;;4.35;;
70635;SDS011;58206;47.310;19.502;2022-09-13T02:30:20;7.97;;;4.13;;
70635;SDS011;58206;47.310;19.502;2022-09-13T02:36:06;6.60;;;3.78;;
70635;SDS011;58206;47.310;19.502;2022-09-13T02:39:11;8.30;;;4.40;;
70635;SDS011;58206;47.310;19.502;2022-09-13T02:41:59;9.10;;;4.25;;
70635;SDS011;58206;47.310;19.502;2022-09-13T02:44:46;8.20;;;4.25;;
70635;SDS011;58206;47.310;19.502;2022-09-13T02:56:43;9.95;;;4.38;;
70635;SDS011;58206;47.310;19.502;2022-09-13T02:59:19;9.07;;;4.05;;
70635;SDS011;58206;47.310;19.502;2022-09-13T03:02:05;8.23;;;4.07;;
70635;SDS011;58206;47.310;19.502;2022-09-13T03:04:51;8.70;;;4.68;;
70635;SDS011;58206;47.310;19.502;2022-09-13T03:07:36;8.57;;;4.37;;
70635;SDS011;58206;47.310;19.502;2022-09-13T03:10:20;7.65;;;4.30;;
70635;SDS011;58206;47.310;19.502;2022-09-13T03:13:10;8.57;;;4.38;;
70635;SDS011;58206;47.310;19.502;2022-09-13T03:27:29;7.97;;;4.10;;
70635;SDS011;58206;47.310;19.502;2022-09-13T03:30:15;8.15;;;4.45;;
70635;SDS011;58206;47.310;19.502;2022-09-13T03:33:05;8.30;;;4.18;;
70635;SDS011;58206;47.310;19.502;2022-09-13T03:36:04;8.87;;;4.53;;
70635;SDS011;58206;47.310;19.502;2022-09-13T03:38:59;8.27;;;4.38;;
70635;SDS011;58206;47.310;19.502;2022-09-13T03:41:49;8.82;;;4.53;;
70635;SDS011;58206;47.310;19.502;2022-09-13T03:44:35;8.73;;;4.70;;
70635;SDS011;58206;47.310;19.502;2022-09-13T03:47:21;7.88;;;4.35;;
70635;SDS011;58206;47.310;19.502;2022-09-13T03:50:06;9.10;;;4.20;;
70635;SDS011;58206;47.310;19.502;2022-09-13T03:52:57;8.13;;;3.97;;
70635;SDS011;58206;47.310;19.502;2022-09-13T03:55:43;8.65;;;4.13;;
70635;SDS011;58206;47.310;19.502;2022-09-13T03:58:27;9.15;;;4.40;;
70635;SDS011;58206;47.310;19.502;2022-09-13T04:01:12;8.50;;;4.32;;
70635;SDS011;58206;47.310;19.502;2022-09-13T04:03:56;10.03;;;4.40;;
70635;SDS011;58206;47.310;19.502;2022-09-13T04:06:40;8.73;;;4.25;;
70635;SDS011;58206;47.310;19.502;2022-09-13T04:09:25;11.05;;;4.65;;
70635;SDS011;58206;47.310;19.502;2022-09-13T04:12:09;10.48;;;5.20;;
70635;SDS011;58206;47.310;19.502;2022-09-13T04:14:53;9.30;;;5.25;;
70635;SDS011;58206;47.310;19.502;2022-09-13T04:17:38;10.50;;;4.70;;
70635;SDS011;58206;47.310;19.502;2022-09-13T04:20:22;8.25;;;4.47;;
70635;SDS011;58206;47.310;19.502;2022-09-13T04:23:08;10.68;;;4.70;;
70635;SDS011;58206;47.310;19.502;2022-09-13T04:25:52;9.32;;;4.90;;
70635;SDS011;58206;47.310;19.502;2022-09-13T04:28:36;9.93;;;4.78;;
70635;SDS011;58206;47.310;19.502;2022-09-13T04:31:21;9.23;;;4.97;;
70635;SDS011;58206;47.310;19.502;2022-09-13T04:34:05;9.40;;;5.30;;
70635;SDS011;58206;47.310;19.502;2022-09-13T04:36:53;11.65;;;5.95;;
70635;SDS011;58206;47.310;19.502;2022-09-13T04:39:37;15.30;;;6.38;;
70635;SDS011;58206;47.310;19.502;2022-09-13T04:42:22;12.63;;;7.95;;
70635;SDS011;58206;47.310;19.502;2022-09-13T04:45:06;15.90;;;9.17;;
70635;SDS011;58206;47.310;19.502;2022-09-13T04:47:51;13.35;;;8.65;;
70635;SDS011;58206;47.310;19.502;2022-09-13T04:50:37;14.27;;;8.98;;
70635;SDS011;58206;47.310;19.502;2022-09-13T04:53:21;17.80;;;8.80;;
70635;SDS011;58206;47.310;19.502;2022-09-13T04:56:05;13.30;;;8.07;;
70635;SDS011;58206;47.310;19.502;2022-09-13T04:58:51;12.97;;;7.27;;
70635;SDS011;58206;47.310;19.502;2022-09-13T05:01:35;13.07;;;7.10;;
70635;SDS011;58206;47.310;19.502;2022-09-13T05:04:20;13.27;;;6.93;;
70635;SDS011;58206;47.310;19.502;2022-09-13T05:07:04;10.15;;;5.80;;
70635;SDS011;58206;47.310;19.502;2022-09-13T05:09:49;10.27;;;5.70;;
70635;SDS011;58206;47.310;19.502;2022-09-13T05:12:34;13.20;;;7.53;;
70635;SDS011;58206;47.310;19.502;2022-09-13T05:15:18;12.70;;;6.65;;
70635;SDS011;58206;47.310;19.502;2022-09-13T05:18:03;10.05;;;6.00;;
70635;SDS011;58206;47.310;19.502;2022-09-13T05:20:47;13.13;;;5.85;;
70635;SDS011;58206;47.310;19.502;2022-09-13T05:23:31;9.68;;;5.70;;
70635;SDS011;58206;47.310;19.502;2022-09-13T05:26:16;13.20;;;6.80;;
70635;SDS011;58206;47.310;19.502;2022-09-13T05:29:01;10.00;;;5.90;;
70635;SDS011;58206;47.310;19.502;2022-09-13T05:31:45;10.10;;;5.63;;
70635;SDS011;58206;47.310;19.502;2022-09-13T05:34:29;10.57;;;6.10;;
70635;SDS011;58206;47.310;19.502;2022-09-13T05:37:14;14.05;;;6.07;;
70635;SDS011;58206;47.310;19.502;2022-09-13T05:40:09;10.70;;;5.63;;
70635;SDS011;58206;47.310;19.502;2022-09-13T05:42:53;11.23;;;5.47;;
70635;SDS011;58206;47.310;19.502;2022-09-13T05:45:37;9.40;;;5.85;;
70635;SDS011;58206;47.310;19.502;2022-09-13T05:48:23;11.32;;;6.00;;
70635;SDS011;58206;47.310;19.502;2022-09-13T05:51:17;14.27;;;6.13;;
70635;SDS011;58206;47.310;19.502;2022-09-13T05:54:01;11.60;;;6.50;;
70635;SDS011;58206;47.310;19.502;2022-09-13T05:56:45;14.98;;;6.82;;
70635;SDS011;58206;47.310;19.502;2022-09-13T05:59:30;11.68;;;6.18;;
70635;SDS011;58206;47.310;19.502;2022-09-13T06:02:27;9.88;;;5.60;;
70635;SDS011;58206;47.310;19.502;2022-09-13T06:05:11;7.22;;;4.70;;
70635;SDS011;58206;47.310;19.502;2022-09-13T06:07:56;6.80;;;4.40;;
70635;SDS011;58206;47.310;19.502;2022-09-13T06:10:41;7.38;;;4.35;;
70635;SDS011;58206;47.310;19.502;2022-09-13T06:13:28;6.97;;;4.22;;
70635;SDS011;58206;47.310;19.502;2022-09-13T06:16:13;7.85;;;4.97;;
70635;SDS011;58206;47.310;19.502;2022-09-13T06:18:59;10.98;;;5.88;;
70635;SDS011;58206;47.310;19.502;2022-09-13T06:21:44;13.37;;;6.23;;
70635;SDS011;58206;47.310;19.502;2022-09-13T06:24:28;9.85;;;5.50;;
70635;SDS011;58206;47.310;19.502;2022-09-13T06:27:12;9.15;;;4.45;;
70635;SDS011;58206;47.310;19.502;2022-09-13T06:29:56;6.35;;;4.13;;
70635;SDS011;58206;47.310;19.502;2022-09-13T06:32:41;7.40;;;4.70;;
70635;SDS011;58206;47.310;19.502;2022-09-13T06:35:25;6.80;;;4.90;;
70635;SDS011;58206;47.310;19.502;2022-09-13T06:38:09;7.22;;;4.20;;
70635;SDS011;58206;47.310;19.502;2022-09-13T06:41:04;6.18;;;4.40;;
70635;SDS011;58206;47.310;19.502;2022-09-13T06:43:53;5.90;;;4.55;;
70635;SDS011;58206;47.310;19.502;2022-09-13T06:46:38;6.53;;;4.60;;
70635;SDS011;58206;47.310;19.502;2022-09-13T06:49:25;7.87;;;4.40;;
70635;SDS011;58206;47.310;19.502;2022-09-13T06:52:12;5.50;;;4.60;;
70635;SDS011;58206;47.310;19.502;2022-09-13T06:54:56;6.60;;;5.15;;
70635;SDS011;58206;47.310;19.502;2022-09-13T06:57:55;7.40;;;4.95;;
70635;SDS011;58206;47.310;19.502;2022-09-13T07:00:39;7.05;;;4.28;;
70635;SDS011;58206;47.310;19.502;2022-09-13T07:03:25;5.47;;;3.80;;
70635;SDS011;58206;47.310;19.502;2022-09-13T07:06:14;7.18;;;4.15;;
70635;SDS011;58206;47.310;19.502;2022-09-13T07:08:59;5.50;;;4.10;;
70635;SDS011;58206;47.310;19.502;2022-09-13T07:11:53;6.25;;;3.80;;
70635;SDS011;58206;47.310;19.502;2022-09-13T07:14:38;6.32;;;3.92;;
70635;SDS011;58206;47.310;19.502;2022-09-13T07:17:22;6.67;;;4.03;;
70635;SDS011;58206;47.310;19.502;2022-09-13T07:20:07;5.53;;;3.83;;
70635;SDS011;58206;47.310;19.502;2022-09-13T07:22:52;4.90;;;3.72;;
70635;SDS011;58206;47.310;19.502;2022-09-13T07:25:36;5.25;;;3.70;;
70635;SDS011;58206;47.310;19.502;2022-09-13T07:28:20;5.07;;;3.28;;
70635;SDS011;58206;47.310;19.502;2022-09-13T07:31:06;5.93;;;2.90;;
70635;SDS011;58206;47.310;19.502;2022-09-13T07:33:55;5.13;;;3.67;;
70635;SDS011;58206;47.310;19.502;2022-09-13T07:36:40;6.05;;;3.67;;
70635;SDS011;58206;47.310;19.502;2022-09-13T07:39:25;5.68;;;3.35;;
70635;SDS011;58206;47.310;19.502;2022-09-13T07:42:09;5.55;;;3.78;;
70635;SDS011;58206;47.310;19.502;2022-09-13T07:44:53;5.03;;;3.53;;
70635;SDS011;58206;47.310;19.502;2022-09-13T07:47:41;6.20;;;3.60;;
70635;SDS011;58206;47.310;19.502;2022-09-13T07:50:26;6.03;;;3.20;;
70635;SDS011;58206;47.310;19.502;2022-09-13T07:53:10;6.18;;;3.22;;
70635;SDS011;58206;47.310;19.502;2022-09-13T07:56:02;5.55;;;3.50;;
70635;SDS011;58206;47.310;19.502;2022-09-13T07:58:50;5.17;;;3.50;;
70635;SDS011;58206;47.310;19.502;2022-09-13T08:01:40;5.32;;;3.20;;
70635;SDS011;58206;47.310;19.502;2022-09-13T08:04:24;5.25;;;3.70;;
70635;SDS011;58206;47.310;19.502;2022-09-13T08:07:09;6.10;;;3.45;;
70635;SDS011;58206;47.310;19.502;2022-09-13T08:09:53;5.20;;;3.90;;
70635;SDS011;58206;47.310;19.502;2022-09-13T08:12:39;5.60;;;3.20;;
70635;SDS011;58206;47.310;19.502;2022-09-13T08:15:24;5.65;;;3.58;;
70635;SDS011;58206;47.310;19.502;2022-09-13T08:18:16;5.10;;;3.33;;
70635;SDS011;58206;47.310;19.502;2022-09-13T08:21:01;5.43;;;3.10;;
70635;SDS011;58206;47.310;19.502;2022-09-13T08:23:45;6.88;;;3.60;;
70635;SDS011;58206;47.310;19.502;2022-09-13T08:26:33;6.00;;;3.13;;
70635;SDS011;58206;47.310;19.502;2022-09-13T08:29:19;7.55;;;3.88;;
70635;SDS011;58206;47.310;19.502;2022-09-13T08:32:06;5.78;;;3.50;;
70635;SDS011;58206;47.310;19.502;2022-09-13T08:34:50;4.60;;;3.05;;
70635;SDS011;58206;47.310;19.502;2022-09-13T08:37:36;4.88;;;3.13;;
70635;SDS011;58206;47.310;19.502;2022-09-13T08:40:21;5.23;;;3.23;;
70635;SDS011;58206;47.310;19.502;2022-09-13T08:46:11;6.13;;;3.30;;
70635;SDS011;58206;47.310;19.502;2022-09-13T08:48:59;4.68;;;3.00;;
70635;SDS011;58206;47.310;19.502;2022-09-13T08:51:52;4.93;;;3.30;;
70635;SDS011;58206;47.310;19.502;2022-09-13T08:54:37;6.07;;;3.80;;
70635;SDS011;58206;47.310;19.502;2022-09-13T08:57:33;5.30;;;3.28;;
70635;SDS011;58206;47.310;19.502;2022-09-13T09:00:22;4.90;;;3.40;;
70635;SDS011;58206;47.310;19.502;2022-09-13T09:03:13;5.38;;;3.33;;
70635;SDS011;58206;47.310;19.502;2022-09-13T09:06:00;4.72;;;3.60;;
70635;SDS011;58206;47.310;19.502;2022-09-13T09:08:52;4.73;;;3.13;;
70635;SDS011;58206;47.310;19.502;2022-09-13T09:14:58;4.93;;;3.58;;
70635;SDS011;58206;47.310;19.502;2022-09-13T09:23:20;6.00;;;3.50;;
70635;SDS011;58206;47.310;19.502;2022-09-13T09:26:15;6.13;;;3.58;;
70635;SDS011;58206;47.310;19.502;2022-09-13T09:29:33;5.07;;;3.08;;
70635;SDS011;58206;47.310;19.502;2022-09-13T09:35:09;5.32;;;3.00;;
70635;SDS011;58206;47.310;19.502;2022-09-13T09:38:20;4.93;;;2.80;;
70635;SDS011;58206;47.310;19.502;2022-09-13T09:46:45;4.32;;;2.30;;
70635;SDS011;58206;47.310;19.502;2022-09-13T09:55:51;5.15;;;2.17;;
70635;SDS011;58206;47.310;19.502;2022-09-13T10:07:35;4.97;;;2.20;;
70635;SDS011;58206;47.310;19.502;2022-09-13T10:13:06;5.25;;;2.35;;
70635;SDS011;58206;47.310;19.502;2022-09-13T10:16:00;5.00;;;2.30;;
70635;SDS011;58206;47.310;19.502;2022-09-13T10:18:44;5.20;;;2.10;;
70635;SDS011;58206;47.310;19.502;2022-09-13T10:21:28;5.47;;;2.90;;
70635;SDS011;58206;47.310;19.502;2022-09-13T10:24:19;5.43;;;2.70;;
70635;SDS011;58206;47.310;19.502;2022-09-13T10:27:04;4.35;;;2.13;;
70635;SDS011;58206;47.310;19.502;2022-09-13T10:30:00;5.43;;;2.00;;
70635;SDS011;58206;47.310;19.502;2022-09-13T10:32:45;4.68;;;2.40;;
70635;SDS011;58206;47.310;19.502;2022-09-13T10:35:41;4.87;;;2.10;;
70635;SDS011;58206;47.310;19.502;2022-09-13T10:41:36;4.45;;;2.03;;
70635;SDS011;58206;47.310;19.502;2022-09-13T10:47:43;5.22;;;2.10;;
70635;SDS011;58206;47.310;19.502;2022-09-13T10:50:31;4.63;;;2.10;;
70635;SDS011;58206;47.310;19.502;2022-09-13T10:56:54;8.73;;;1.95;;
70635;SDS011;58206;47.310;19.502;2022-09-13T10:59:39;4.10;;;1.98;;
70635;SDS011;58206;47.310;19.502;2022-09-13T11:08:02;5.57;;;2.00;;
70635;SDS011;58206;47.310;19.502;2022-09-13T11:31:41;4.05;;;1.80;;
70635;SDS011;58206;47.310;19.502;2022-09-13T11:37:31;5.80;;;2.00;;
70635;SDS011;58206;47.310;19.502;2022-09-13T11:43:16;4.30;;;2.05;;
70635;SDS011;58206;47.310;19.502;2022-09-13T11:51:52;5.85;;;2.00;;
70635;SDS011;58206;47.310;19.502;2022-09-13T11:57:58;5.50;;;1.83;;
70635;SDS011;58206;47.310;19.502;2022-09-13T12:00:45;4.93;;;1.80;;
70635;SDS011;58206;47.310;19.502;2022-09-13T12:03:36;4.83;;;1.90;;
70635;SDS011;58206;47.310;19.502;2022-09-13T12:06:23;6.47;;;1.70;;
70635;SDS011;58206;47.310;19.502;2022-09-13T12:09:12;5.65;;;1.80;;
70635;SDS011;58206;47.310;19.502;2022-09-13T12:17:41;5.20;;;1.90;;
70635;SDS011;58206;47.310;19.502;2022-09-13T12:23:34;5.60;;;2.08;;
70635;SDS011;58206;47.310;19.502;2022-09-13T12:26:20;5.90;;;1.83;;
70635;SDS011;58206;47.310;19.502;2022-09-13T12:29:21;5.55;;;1.80;;
70635;SDS011;58206;47.310;19.502;2022-09-13T12:32:09;5.07;;;1.77;;
70635;SDS011;58206;47.310;19.502;2022-09-13T13:01:27;3.97;;;1.80;;
70635;SDS011;58206;47.310;19.502;2022-09-13T13:04:27;3.88;;;1.58;;
70635;SDS011;58206;47.310;19.502;2022-09-13T13:07:18;4.10;;;1.67;;
70635;SDS011;58206;47.310;19.502;2022-09-13T13:10:03;5.55;;;1.92;;
70635;SDS011;58206;47.310;19.502;2022-09-13T13:12:48;4.75;;;1.73;;
70635;SDS011;58206;47.310;19.502;2022-09-13T13:18:27;5.32;;;2.22;;
70635;SDS011;58206;47.310;19.502;2022-09-13T13:21:23;4.25;;;1.88;;
70635;SDS011;58206;47.310;19.502;2022-09-13T13:26:58;4.63;;;1.85;;
70635;SDS011;58206;47.310;19.502;2022-09-13T13:29:43;4.63;;;1.93;;
70635;SDS011;58206;47.310;19.502;2022-09-13T13:32:27;5.15;;;1.80;;
70635;SDS011;58206;47.310;19.502;2022-09-13T13:35:26;5.60;;;2.22;;
70635;SDS011;58206;47.310;19.502;2022-09-13T13:41:54;7.57;;;2.22;;
70635;SDS011;58206;47.310;19.502;2022-09-13T13:50:15;4.65;;;1.98;;
70635;SDS011;58206;47.310;19.502;2022-09-13T13:52:59;5.22;;;2.00;;
70635;SDS011;58206;47.310;19.502;2022-09-13T13:57:01;6.32;;;1.85;;
70635;SDS011;58206;47.310;19.502;2022-09-13T13:59:16;6.47;;;2.13;;
70635;SDS011;58206;47.310;19.502;2022-09-13T14:02:02;6.32;;;2.17;;
70635;SDS011;58206;47.310;19.502;2022-09-13T14:04:58;5.45;;;2.20;;
70635;SDS011;58206;47.310;19.502;2022-09-13T14:14:55;7.60;;;2.10;;
70635;SDS011;58206;47.310;19.502;2022-09-13T14:17:49;5.10;;;2.08;;
70635;SDS011;58206;47.310;19.502;2022-09-13T14:20:37;4.57;;;2.10;;
70635;SDS011;58206;47.310;19.502;2022-09-13T14:23:44;4.40;;;2.30;;
70635;SDS011;58206;47.310;19.502;2022-09-13T14:26:28;6.55;;;2.30;;
70635;SDS011;58206;47.310;19.502;2022-09-13T14:29:16;5.37;;;2.30;;
70635;SDS011;58206;47.310;19.502;2022-09-13T14:32:03;5.30;;;2.28;;
70635;SDS011;58206;47.310;19.502;2022-09-13T14:34:59;6.35;;;2.15;;
70635;SDS011;58206;47.310;19.502;2022-09-13T14:37:45;6.75;;;2.42;;
70635;SDS011;58206;47.310;19.502;2022-09-13T14:40:29;5.63;;;2.58;;
70635;SDS011;58206;47.310;19.502;2022-09-13T14:43:24;5.67;;;2.40;;
70635;SDS011;58206;47.310;19.502;2022-09-13T14:46:11;4.55;;;2.25;;
70635;SDS011;58206;47.310;19.502;2022-09-13T14:48:57;5.10;;;2.20;;
70635;SDS011;58206;47.310;19.502;2022-09-13T14:51:47;5.35;;;2.20;;
70635;SDS011;58206;47.310;19.502;2022-09-13T14:54:37;6.28;;;2.40;;
70635;SDS011;58206;47.310;19.502;2022-09-13T14:57:27;5.20;;;2.60;;
70635;SDS011;58206;47.310;19.502;2022-09-13T15:03:10;9.00;;;2.35;;
70635;SDS011;58206;47.310;19.502;2022-09-13T15:05:56;5.63;;;2.20;;
70635;SDS011;58206;47.310;19.502;2022-09-13T15:08:42;5.30;;;2.30;;
70635;SDS011;58206;47.310;19.502;2022-09-13T15:11:30;5.97;;;2.37;;
70635;SDS011;58206;47.310;19.502;2022-09-13T15:20:10;5.40;;;2.20;;
70635;SDS011;58206;47.310;19.502;2022-09-13T15:22:55;6.03;;;2.33;;
70635;SDS011;58206;47.310;19.502;2022-09-13T15:25:40;4.97;;;2.17;;
70635;SDS011;58206;47.310;19.502;2022-09-13T15:28:31;5.20;;;2.40;;
70635;SDS011;58206;47.310;19.502;2022-09-13T15:31:23;5.63;;;2.45;;
70635;SDS011;58206;47.310;19.502;2022-09-13T15:39:49;6.17;;;2.57;;
70635;SDS011;58206;47.310;19.502;2022-09-13T15:42:35;5.47;;;2.30;;
70635;SDS011;58206;47.310;19.502;2022-09-13T15:45:19;4.90;;;2.33;;
70635;SDS011;58206;47.310;19.502;2022-09-13T15:48:04;4.43;;;2.10;;
70635;SDS011;58206;47.310;19.502;2022-09-13T15:53:53;4.23;;;2.03;;
70635;SDS011;58206;47.310;19.502;2022-09-13T15:56:40;5.97;;;2.50;;
70635;SDS011;58206;47.310;19.502;2022-09-13T15:59:25;5.68;;;2.30;;
70635;SDS011;58206;47.310;19.502;2022-09-13T16:02:16;4.35;;;2.17;;
70635;SDS011;58206;47.310;19.502;2022-09-13T16:05:02;6.85;;;2.20;;
70635;SDS011;58206;47.310;19.502;2022-09-13T16:07:47;6.60;;;2.30;;
70635;SDS011;58206;47.310;19.502;2022-09-13T16:10:31;5.63;;;2.30;;
70635;SDS011;58206;47.310;19.502;2022-09-13T16:13:15;6.80;;;2.22;;
70635;SDS011;58206;47.310;19.502;2022-09-13T16:16:03;7.65;;;2.75;;
70635;SDS011;58206;47.310;19.502;2022-09-13T16:18:48;5.10;;;2.30;;
70635;SDS011;58206;47.310;19.502;2022-09-13T16:21:32;8.17;;;3.63;;
70635;SDS011;58206;47.310;19.502;2022-09-13T16:24:16;7.78;;;3.10;;
70635;SDS011;58206;47.310;19.502;2022-09-13T16:27:00;9.27;;;3.67;;
70635;SDS011;58206;47.310;19.502;2022-09-13T16:29:45;12.05;;;4.68;;
70635;SDS011;58206;47.310;19.502;2022-09-13T16:32:30;9.95;;;3.10;;
70635;SDS011;58206;47.310;19.502;2022-09-13T16:35:14;7.60;;;2.70;;
70635;SDS011;58206;47.310;19.502;2022-09-13T16:38:00;8.25;;;2.78;;
70635;SDS011;58206;47.310;19.502;2022-09-13T16:40:44;8.18;;;3.17;;
70635;SDS011;58206;47.310;19.502;2022-09-13T16:43:29;8.27;;;2.90;;
70635;SDS011;58206;47.310;19.502;2022-09-13T16:46:13;6.03;;;2.40;;
70635;SDS011;58206;47.310;19.502;2022-09-13T16:48:58;8.53;;;2.77;;
70635;SDS011;58206;47.310;19.502;2022-09-13T16:51:42;15.18;;;5.00;;
70635;SDS011;58206;47.310;19.502;2022-09-13T16:54:27;14.35;;;4.85;;
70635;SDS011;58206;47.310;19.502;2022-09-13T16:57:13;9.10;;;3.50;;
70635;SDS011;58206;47.310;19.502;2022-09-13T16:59:58;8.90;;;3.17;;
70635;SDS011;58206;47.310;19.502;2022-09-13T17:02:50;10.23;;;4.10;;
70635;SDS011;58206;47.310;19.502;2022-09-13T17:05:34;15.95;;;3.80;;
70635;SDS011;58206;47.310;19.502;2022-09-13T17:08:19;8.65;;;4.32;;
70635;SDS011;58206;47.310;19.502;2022-09-13T17:11:04;7.72;;;4.70;;
70635;SDS011;58206;47.310;19.502;2022-09-13T17:13:48;10.52;;;5.80;;
70635;SDS011;58206;47.310;19.502;2022-09-13T17:16:37;13.83;;;6.30;;
70635;SDS011;58206;47.310;19.502;2022-09-13T17:19:24;9.70;;;5.70;;
70635;SDS011;58206;47.310;19.502;2022-09-13T17:22:09;8.93;;;5.70;;
70635;SDS011;58206;47.310;19.502;2022-09-13T17:24:54;10.30;;;5.10;;
70635;SDS011;58206;47.310;19.502;2022-09-13T17:27:38;14.38;;;5.68;;
70635;SDS011;58206;47.310;19.502;2022-09-13T17:34:11;9.15;;;4.88;;
70635;SDS011;58206;47.310;19.502;2022-09-13T17:36:55;13.60;;;5.40;;
70635;SDS011;58206;47.310;19.502;2022-09-13T17:39:40;12.32;;;5.28;;
70635;SDS011;58206;47.310;19.502;2022-09-13T17:42:24;11.75;;;4.55;;
70635;SDS011;58206;47.310;19.502;2022-09-13T17:45:08;9.33;;;5.70;;
70635;SDS011;58206;47.310;19.502;2022-09-13T17:47:54;10.45;;;5.88;;
70635;SDS011;58206;47.310;19.502;2022-09-13T17:50:38;12.30;;;6.40;;
70635;SDS011;58206;47.310;19.502;2022-09-13T17:53:26;14.43;;;6.63;;
70635;SDS011;58206;47.310;19.502;2022-09-13T17:56:10;12.52;;;6.70;;
70635;SDS011;58206;47.310;19.502;2022-09-13T17:58:55;24.03;;;7.43;;
70635;SDS011;58206;47.310;19.502;2022-09-13T18:01:41;15.20;;;6.20;;
70635;SDS011;58206;47.310;19.502;2022-09-13T18:08:14;14.30;;;7.07;;
70635;SDS011;58206;47.310;19.502;2022-09-13T18:11:02;11.52;;;6.50;;
70635;SDS011;58206;47.310;19.502;2022-09-13T18:13:47;14.17;;;6.37;;
70635;SDS011;58206;47.310;19.502;2022-09-13T18:16:31;10.05;;;5.45;;
70635;SDS011;58206;47.310;19.502;2022-09-13T18:19:16;13.80;;;6.07;;
70635;SDS011;58206;47.310;19.502;2022-09-13T18:22:01;9.27;;;4.65;;
70635;SDS011;58206;47.310;19.502;2022-09-13T18:24:46;8.50;;;4.63;;
70635;SDS011;58206;47.310;19.502;2022-09-13T18:27:30;9.40;;;4.67;;
70635;SDS011;58206;47.310;19.502;2022-09-13T18:30:16;11.50;;;4.60;;
70635;SDS011;58206;47.310;19.502;2022-09-13T18:33:00;11.25;;;4.95;;
70635;SDS011;58206;47.310;19.502;2022-09-13T18:35:44;10.57;;;5.30;;
70635;SDS011;58206;47.310;19.502;2022-09-13T18:42:26;14.73;;;7.80;;
70635;SDS011;58206;47.310;19.502;2022-09-13T18:45:10;16.33;;;8.57;;
70635;SDS011;58206;47.310;19.502;2022-09-13T18:47:55;15.20;;;8.80;;
70635;SDS011;58206;47.310;19.502;2022-09-13T18:50:42;19.33;;;9.10;;
70635;SDS011;58206;47.310;19.502;2022-09-13T18:53:27;15.77;;;8.68;;
70635;SDS011;58206;47.310;19.502;2022-09-13T18:56:13;14.40;;;8.10;;
70635;SDS011;58206;47.310;19.502;2022-09-13T18:58:58;15.45;;;8.40;;
70635;SDS011;58206;47.310;19.502;2022-09-13T19:01:43;16.58;;;8.32;;
70635;SDS011;58206;47.310;19.502;2022-09-13T19:04:28;15.30;;;7.35;;
70635;SDS011;58206;47.310;19.502;2022-09-13T19:07:12;13.35;;;6.70;;
70635;SDS011;58206;47.310;19.502;2022-09-13T19:09:56;12.60;;;6.53;;
70635;SDS011;58206;47.310;19.502;2022-09-13T19:12:41;12.35;;;6.07;;
70635;SDS011;58206;47.310;19.502;2022-09-13T19:15:26;11.52;;;6.32;;
70635;SDS011;58206;47.310;19.502;2022-09-13T19:18:10;10.88;;;6.72;;
70635;SDS011;58206;47.310;19.502;2022-09-13T19:21:06;15.88;;;6.78;;
70635;SDS011;58206;47.310;19.502;2022-09-13T19:23:51;14.07;;;6.57;;
70635;SDS011;58206;47.310;19.502;2022-09-13T19:26:36;13.40;;;5.60;;
70635;SDS011;58206;47.310;19.502;2022-09-13T19:29:21;8.90;;;5.15;;
70635;SDS011;58206;47.310;19.502;2022-09-13T19:32:06;9.73;;;5.18;;
70635;SDS011;58206;47.310;19.502;2022-09-13T19:34:50;11.13;;;5.38;;
70635;SDS011;58206;47.310;19.502;2022-09-13T19:37:34;9.53;;;5.27;;
70635;SDS011;58206;47.310;19.502;2022-09-13T19:40:19;12.02;;;5.38;;
70635;SDS011;58206;47.310;19.502;2022-09-13T19:43:03;10.15;;;5.05;;
70635;SDS011;58206;47.310;19.502;2022-09-13T19:45:55;10.43;;;5.22;;
70635;SDS011;58206;47.310;19.502;2022-09-13T19:48:44;9.23;;;4.80;;
70635;SDS011;58206;47.310;19.502;2022-09-13T19:51:29;10.10;;;6.20;;
70635;SDS011;58206;47.310;19.502;2022-09-13T19:54:14;13.98;;;5.32;;
70635;SDS011;58206;47.310;19.502;2022-09-13T19:57:00;10.02;;;5.10;;
70635;SDS011;58206;47.310;19.502;2022-09-13T19:59:44;10.20;;;5.22;;
70635;SDS011;58206;47.310;19.502;2022-09-13T20:02:28;9.55;;;5.38;;
70635;SDS011;58206;47.310;19.502;2022-09-13T20:05:13;9.83;;;5.53;;
70635;SDS011;58206;47.310;19.502;2022-09-13T20:07:57;13.60;;;6.95;;
70635;SDS011;58206;47.310;19.502;2022-09-13T20:10:42;15.07;;;7.45;;
70635;SDS011;58206;47.310;19.502;2022-09-13T20:13:26;12.20;;;6.60;;
70635;SDS011;58206;47.310;19.502;2022-09-13T20:16:32;13.38;;;6.40;;